createdAt,value
2018-12-25T00:02:12.682Z,92.91
2018-12-25T00:04:54.392Z,92.50
2018-12-25T00:07:42.840Z,92.53
2018-12-25T00:10:24.251Z,93.89
2018-12-25T00:13:12.650Z,93.49
2018-12-25T00:15:53.448Z,93.50
2018-12-25T00:18:41.955Z,93.47
2018-12-25T00:21:23.610Z,93.42
2018-12-25T00:24:12.187Z,93.62
2018-12-25T00:26:53.759Z,93.95
2018-12-25T00:29:42.500Z,94.74
2018-12-25T00:32:23.668Z,94.77
2018-12-25T00:35:12.172Z,94.99
2018-12-25T00:37:55.063Z,95.54
2018-12-25T00:40:43.608Z,95.00
2018-12-25T00:43:24.436Z,94.67
2018-12-25T00:46:12.760Z,94.11
2018-12-25T00:48:54.174Z,94.02
2018-12-25T00:51:42.779Z,93.69
2018-12-25T00:54:25.676Z,93.76
2018-12-25T00:56:54.955Z,94.28
2018-12-25T00:59:37.540Z,94.79
2018-12-25T01:02:26.363Z,94.71
2018-12-25T01:05:07.568Z,94.22
2018-12-25T01:07:56.112Z,94.22
2018-12-25T01:10:37.288Z,93.91
2018-12-25T01:13:25.861Z,94.05
2018-12-25T01:16:07.136Z,94.12
2018-12-25T01:18:55.725Z,94.64
2018-12-25T01:21:36.809Z,94.95
2018-12-25T01:24:25.204Z,96.00
2018-12-25T01:27:06.598Z,95.45
2018-12-25T01:29:55.670Z,95.29
2018-12-25T01:32:37.431Z,95.00
2018-12-25T01:35:25.923Z,94.82
2018-12-25T01:38:07.454Z,94.81
2018-12-25T01:40:36.698Z,94.91
2018-12-25T01:43:18.361Z,94.97
2018-12-25T01:46:06.826Z,95.33
2018-12-25T01:48:49.831Z,95.42
2018-12-25T01:51:38.513Z,94.63
2018-12-25T01:54:19.760Z,94.98
2018-12-25T01:57:08.255Z,94.30
2018-12-25T01:59:49.959Z,94.33
2018-12-25T02:02:38.417Z,94.61
2018-12-25T02:05:19.749Z,94.11
2018-12-25T02:08:08.115Z,94.30
2018-12-25T02:10:49.743Z,94.05
2018-12-25T02:13:38.285Z,94.50
2018-12-25T02:16:19.090Z,93.97
2018-12-25T02:19:07.592Z,93.51
2018-12-25T02:21:49.068Z,93.80
2018-12-25T02:24:37.591Z,93.25
2018-12-25T02:27:19.202Z,93.36
2018-12-25T02:30:07.890Z,93.63
2018-12-25T02:32:48.976Z,93.03
2018-12-25T02:35:37.569Z,92.33
2018-12-25T02:38:19.064Z,92.73
2018-12-25T02:41:07.388Z,92.22
2018-12-25T02:43:49.173Z,91.97
2018-12-25T02:46:37.741Z,92.42
2018-12-25T02:49:21.199Z,92.88
2018-12-25T02:52:09.836Z,92.33
2018-12-25T02:54:51.072Z,92.81
2018-12-25T02:57:39.484Z,92.53
2018-12-25T03:00:20.908Z,91.89
2018-12-25T03:03:09.326Z,92.32
2018-12-25T03:05:50.780Z,92.24
2018-12-25T03:08:39.380Z,91.94
2018-12-25T03:11:20.524Z,92.29
2018-12-25T03:14:08.953Z,91.61
2018-12-25T03:16:38.411Z,90.97
2018-12-25T03:19:26.783Z,90.83
2018-12-25T03:22:07.925Z,90.87
2018-12-25T03:24:56.241Z,91.09
2018-12-25T03:27:38.030Z,90.67
2018-12-25T03:30:26.680Z,90.89
2018-12-25T03:33:08.282Z,90.96
2018-12-25T03:35:38.167Z,90.99
2018-12-25T03:38:19.807Z,91.63
2018-12-25T03:41:08.399Z,91.30
2018-12-25T03:43:49.214Z,90.79
2018-12-25T03:46:37.671Z,91.27
2018-12-25T03:49:19.458Z,90.98
2018-12-25T03:52:07.938Z,91.37
2018-12-25T03:54:49.795Z,91.50
2018-12-25T03:57:38.232Z,91.73
2018-12-25T04:00:19.393Z,91.57
2018-12-25T04:03:08.070Z,91.88
2018-12-25T04:05:47.652Z,92.31
2018-12-25T04:08:36.982Z,92.10
2018-12-25T04:11:17.983Z,92.12
2018-12-25T04:14:06.389Z,92.50
2018-12-25T04:16:48.116Z,92.62
2018-12-25T04:19:36.669Z,92.08
2018-12-25T04:22:17.913Z,92.32
2018-12-25T04:25:06.534Z,92.13
2018-12-25T04:27:48.301Z,92.39
2018-12-25T04:30:36.724Z,92.66
2018-12-25T04:33:18.281Z,92.07
2018-12-25T04:36:07.081Z,92.22
2018-12-25T04:38:48.326Z,92.19
2018-12-25T04:41:36.780Z,92.20
2018-12-25T04:44:18.254Z,92.29
2018-12-25T04:47:06.860Z,92.69
2018-12-25T04:49:48.196Z,92.46
2018-12-25T04:52:36.984Z,92.77
2018-12-25T04:55:18.273Z,92.32
2018-12-25T04:58:06.568Z,92.43
2018-12-25T05:00:48.087Z,92.34
2018-12-25T05:03:36.670Z,92.03
2018-12-25T05:06:17.731Z,91.46
2018-12-25T05:09:06.982Z,91.25
2018-12-25T05:11:48.326Z,91.02
2018-12-25T05:14:36.802Z,91.04
2018-12-25T05:17:18.256Z,90.95
2018-12-25T05:20:40.881Z,90.08
2018-12-25T05:23:22.187Z,89.94
2018-12-25T05:26:02.682Z,89.30
2018-12-25T05:28:50.655Z,89.17
2018-12-25T05:31:33.655Z,89.06
2018-12-25T05:34:21.601Z,88.86
2018-12-25T05:37:03.933Z,88.12
2018-12-25T05:39:52.018Z,88.12
2018-12-25T05:42:33.096Z,87.63
2018-12-25T05:45:21.048Z,87.49
2018-12-25T05:48:02.534Z,87.58
2018-12-25T05:50:46.817Z,87.45
2018-12-25T05:53:33.463Z,88.29
2018-12-25T05:56:14.869Z,88.18
2018-12-25T05:59:03.285Z,88.40
2018-12-25T06:01:43.892Z,87.96
2018-12-25T06:04:32.086Z,88.87
2018-12-25T06:07:12.906Z,88.96
2018-12-25T06:10:00.972Z,89.42
2018-12-25T06:12:41.912Z,89.04
2018-12-25T06:15:29.892Z,89.22
2018-12-25T06:18:11.372Z,88.93
2018-12-25T06:20:59.283Z,89.02
2018-12-25T06:23:42.096Z,88.48
2018-12-25T06:26:30.107Z,89.04
2018-12-25T06:29:11.429Z,88.97
2018-12-25T06:31:59.438Z,89.45
2018-12-25T06:34:40.658Z,89.91
2018-12-25T06:37:28.833Z,90.38
2018-12-25T06:40:09.864Z,90.84
2018-12-25T06:42:57.996Z,90.89
2018-12-25T06:45:40.332Z,90.88
2018-12-25T06:48:28.313Z,91.22
2018-12-25T06:51:11.581Z,91.82
2018-12-25T06:53:59.439Z,91.98
2018-12-25T06:56:40.506Z,91.89
2018-12-25T06:59:29.168Z,92.10
2018-12-25T07:02:10.384Z,91.68
2018-12-25T07:04:58.325Z,91.61
2018-12-25T07:07:39.369Z,91.20
2018-12-25T07:10:27.542Z,91.24
2018-12-25T07:13:10.739Z,91.65
2018-12-25T07:15:58.699Z,90.96
2018-12-25T07:18:39.910Z,90.87
2018-12-25T07:21:27.905Z,90.59
2018-12-25T07:24:08.734Z,90.98
2018-12-25T07:26:56.494Z,90.93
2018-12-25T07:29:37.472Z,90.98
2018-12-25T07:32:25.689Z,91.15
2018-12-25T07:35:06.781Z,91.91
2018-12-25T07:37:54.710Z,91.97
2018-12-25T07:40:35.798Z,92.23
2018-12-25T07:43:23.756Z,92.10
2018-12-25T07:46:04.845Z,92.31
2018-12-25T07:48:52.899Z,92.34
2018-12-25T07:51:34.055Z,93.21
2018-12-25T07:54:22.003Z,93.53
2018-12-25T07:57:03.088Z,93.95
2018-12-25T07:59:50.927Z,92.88
2018-12-25T08:02:31.897Z,92.58
2018-12-25T08:05:19.867Z,92.22
2018-12-25T08:07:59.035Z,91.19
2018-12-25T08:10:47.028Z,91.88
2018-12-25T08:13:27.768Z,91.76
2018-12-25T08:16:18.374Z,91.48
2018-12-25T08:18:59.460Z,90.92
2018-12-25T08:21:47.685Z,90.92
2018-12-25T08:24:28.980Z,90.37
2018-12-25T08:27:16.989Z,90.38
2018-12-25T08:29:58.285Z,90.33
2018-12-25T08:32:46.136Z,90.32
2018-12-25T08:35:29.155Z,90.66
2018-12-25T08:38:17.055Z,90.57
2018-12-25T08:41:00.346Z,90.42
2018-12-25T08:43:48.382Z,89.82
2018-12-25T08:46:29.356Z,89.56
2018-12-25T08:49:10.102Z,88.70
2018-12-25T08:51:51.458Z,88.41
2018-12-25T08:54:39.632Z,87.93
2018-12-25T08:57:20.682Z,87.89
2018-12-25T09:00:11.109Z,87.76
2018-12-25T09:02:51.855Z,87.59
2018-12-25T09:05:39.996Z,87.98
2018-12-25T09:08:19.062Z,87.28
2018-12-25T09:11:06.985Z,86.82
2018-12-25T09:13:47.903Z,86.80
2018-12-25T09:16:36.074Z,87.05
2018-12-25T09:19:17.066Z,86.40
2018-12-25T09:22:05.031Z,85.08
2018-12-25T09:24:46.137Z,85.11
2018-12-25T09:27:34.086Z,85.32
2018-12-25T09:30:15.413Z,85.05
2018-12-25T09:33:04.505Z,84.25
2018-12-25T09:35:47.151Z,84.14
2018-12-25T09:38:35.157Z,84.31
2018-12-25T09:41:16.442Z,84.83
2018-12-25T09:44:04.265Z,84.46
2018-12-25T09:46:45.283Z,84.65
2018-12-25T09:49:33.127Z,84.59
2018-12-25T09:52:14.340Z,84.64
2018-12-25T09:55:02.272Z,84.34
2018-12-25T09:57:45.442Z,84.21
2018-12-25T10:00:33.408Z,84.62
2018-12-25T10:03:14.630Z,84.36
2018-12-25T10:06:02.664Z,85.05
2018-12-25T10:08:43.633Z,85.12
2018-12-25T10:11:31.499Z,84.90
2018-12-25T10:14:12.133Z,84.87
2018-12-25T10:17:00.141Z,84.87
2018-12-25T10:19:41.669Z,84.49
2018-12-25T10:22:29.536Z,84.62
2018-12-25T10:25:10.235Z,84.48
2018-12-25T10:27:58.054Z,84.31
2018-12-25T10:30:39.427Z,83.85
2018-12-25T10:33:27.279Z,83.82
2018-12-25T10:36:10.535Z,84.25
2018-12-25T10:38:58.680Z,83.71
2018-12-25T10:41:39.836Z,83.44
2018-12-25T10:44:27.652Z,83.86
2018-12-25T10:47:07.084Z,84.10
2018-12-25T10:49:55.113Z,83.57
2018-12-25T10:52:36.187Z,83.48
2018-12-25T10:55:24.273Z,83.15
2018-12-25T10:58:05.548Z,82.50
2018-12-25T11:00:58.501Z,83.03
2018-12-25T11:03:39.660Z,83.62
2018-12-25T11:06:27.675Z,83.08
2018-12-25T11:09:09.020Z,82.92
2018-12-25T11:11:56.996Z,83.12
2018-12-25T11:14:38.016Z,83.23
2018-12-25T11:17:26.554Z,82.98
2018-12-25T11:20:11.515Z,83.37
2018-12-25T11:23:00.929Z,83.23
2018-12-25T11:25:41.687Z,82.65
2018-12-25T11:28:30.651Z,81.92
2018-12-25T11:31:11.758Z,81.73
2018-12-25T11:33:59.829Z,81.69
2018-12-25T11:36:41.037Z,81.53
2018-12-25T11:39:29.063Z,81.42
2018-12-25T11:42:10.726Z,81.44
2018-12-25T11:44:58.567Z,80.89
2018-12-25T11:47:39.434Z,80.73
2018-12-25T11:53:34.376Z,80.35
2018-12-25T11:56:22.734Z,80.65
2018-12-25T11:59:03.636Z,80.38
2018-12-25T12:01:51.610Z,80.41
2018-12-25T12:04:32.538Z,81.28
2018-12-25T12:07:20.708Z,81.39
2018-12-25T12:10:01.845Z,81.46
2018-12-25T12:12:50.192Z,81.11
2018-12-25T12:15:30.955Z,80.94
2018-12-25T12:18:18.991Z,80.75
2018-12-25T12:21:00.096Z,80.59
2018-12-25T12:23:47.910Z,80.62
2018-12-25T12:26:29.068Z,80.55
2018-12-25T12:29:17.092Z,81.22
2018-12-25T12:31:58.485Z,81.45
2018-12-25T12:34:46.350Z,81.19
2018-12-25T12:37:27.529Z,80.83
2018-12-25T12:40:15.837Z,80.99
2018-12-25T12:42:56.778Z,80.89
2018-12-25T12:45:44.643Z,80.85
2018-12-25T12:48:25.883Z,80.54
2018-12-25T12:51:14.335Z,81.02
2018-12-25T12:53:55.097Z,81.24
2018-12-25T12:56:43.454Z,81.04
2018-12-25T12:59:24.510Z,81.18
2018-12-25T13:02:12.567Z,80.64
2018-12-25T13:04:53.863Z,80.44
2018-12-25T13:07:41.900Z,80.15
2018-12-25T13:10:23.150Z,80.34
2018-12-25T13:13:11.219Z,80.34
2018-12-25T13:16:11.500Z,80.15
2018-12-25T13:18:59.482Z,80.21
2018-12-25T13:21:40.455Z,79.93
2018-12-25T13:24:29.115Z,80.03
2018-12-25T13:27:09.867Z,80.18
2018-12-25T13:29:38.406Z,80.15
2018-12-25T13:32:18.799Z,80.43
2018-12-25T13:35:06.892Z,80.64
2018-12-25T13:37:48.336Z,80.66
2018-12-25T13:40:36.303Z,80.63
2018-12-25T13:43:17.516Z,80.65
2018-12-25T13:46:07.383Z,80.72
2018-12-25T13:49:07.824Z,80.81
2018-12-25T13:51:49.175Z,80.60
2018-12-25T13:54:30.280Z,81.02
2018-12-25T13:57:18.407Z,81.05
2018-12-25T13:59:59.414Z,81.14
2018-12-25T14:02:47.163Z,81.52
2018-12-25T14:05:26.171Z,81.21
2018-12-25T14:08:14.267Z,81.58
2018-12-25T14:10:53.513Z,82.12
2018-12-25T14:13:41.454Z,81.61
2018-12-25T14:16:21.892Z,81.26
2018-12-25T14:19:09.948Z,81.94
2018-12-25T14:21:51.108Z,82.00
2018-12-25T14:24:39.041Z,81.71
2018-12-25T14:27:20.121Z,81.79
2018-12-25T14:30:08.274Z,82.31
2018-12-25T14:32:49.360Z,81.81
2018-12-25T14:35:37.431Z,82.08
2018-12-25T14:38:18.264Z,82.23
2018-12-25T14:41:06.607Z,81.94
2018-12-25T14:43:48.480Z,82.27
2018-12-25T14:46:36.402Z,82.23
2018-12-25T14:49:18.263Z,82.51
2018-12-25T14:52:00.667Z,82.95
2018-12-25T14:54:42.137Z,82.96
2018-12-25T14:57:23.470Z,83.22
2018-12-25T15:00:11.423Z,82.91
2018-12-25T15:02:52.937Z,82.87
2018-12-25T15:05:40.919Z,83.13
2018-12-25T15:08:23.963Z,82.79
2018-12-25T15:11:11.772Z,83.26
2018-12-25T15:13:53.437Z,83.16
2018-12-25T15:16:41.388Z,83.03
2018-12-25T15:19:22.640Z,82.90
2018-12-25T15:22:10.583Z,83.32
2018-12-25T15:24:39.266Z,83.79
2018-12-25T15:27:27.322Z,82.86
2018-12-25T15:30:08.115Z,83.07
2018-12-25T15:32:56.262Z,82.85
2018-12-25T15:35:37.863Z,82.41
2018-12-25T15:38:06.299Z,82.46
2018-12-25T15:40:47.763Z,82.96
2018-12-25T15:43:35.731Z,83.14
2018-12-25T15:46:17.016Z,83.29
2018-12-25T15:49:04.971Z,83.42
2018-12-25T15:51:46.337Z,84.38
2018-12-25T15:54:34.208Z,83.24
2018-12-25T15:57:15.431Z,83.51
2018-12-25T16:00:05.061Z,84.04
2018-12-25T16:02:45.796Z,83.83
2018-12-25T16:05:33.826Z,83.93
2018-12-25T16:08:14.512Z,84.19
2018-12-25T16:11:02.477Z,84.53
2018-12-25T16:13:43.671Z,84.66
2018-12-25T16:16:31.621Z,84.77
2018-12-25T16:19:10.831Z,85.26
2018-12-25T16:21:58.805Z,85.84
2018-12-25T16:24:40.454Z,85.52
2018-12-25T16:27:28.470Z,85.91
2018-12-25T16:30:09.368Z,85.32
2018-12-25T16:32:57.218Z,85.12
2018-12-25T16:35:38.306Z,85.25
2018-12-25T16:38:26.185Z,85.49
2018-12-25T16:41:05.444Z,85.62
2018-12-25T16:43:53.237Z,86.43
2018-12-25T16:46:34.579Z,86.28
2018-12-25T16:49:22.768Z,87.09
2018-12-25T16:52:03.561Z,87.55
2018-12-25T16:54:51.541Z,87.66
2018-12-25T16:57:32.578Z,88.00
2018-12-25T17:00:20.365Z,88.19
2018-12-25T17:03:01.917Z,88.13
2018-12-25T17:05:50.260Z,88.54
2018-12-25T17:08:31.265Z,88.07
2018-12-25T17:11:12.285Z,88.01
2018-12-25T17:14:00.315Z,88.21
2018-12-25T17:16:41.440Z,87.35
2018-12-25T17:19:29.174Z,86.36
2018-12-25T17:22:10.372Z,85.42
2018-12-25T17:24:59.702Z,85.85
2018-12-25T17:28:01.492Z,86.06
2018-12-25T17:30:49.656Z,86.21
2018-12-25T17:33:30.674Z,86.77
2018-12-25T17:36:18.914Z,87.11
2018-12-25T17:38:59.731Z,86.59
2018-12-25T17:41:47.947Z,86.61
2018-12-25T17:44:31.282Z,86.81
2018-12-25T17:47:19.111Z,87.08
2018-12-25T17:49:59.864Z,87.30
2018-12-25T17:52:40.870Z,87.54
2018-12-25T17:55:21.491Z,87.37
2018-12-25T17:58:09.423Z,86.82
2018-12-25T18:00:48.547Z,85.42
2018-12-25T18:03:36.409Z,85.54
2018-12-25T18:06:17.126Z,84.92
2018-12-25T18:09:05.639Z,84.69
2018-12-25T18:11:46.557Z,84.02
2018-12-25T18:14:34.525Z,83.38
2018-12-25T18:17:18.879Z,83.73
2018-12-25T18:20:05.773Z,82.92
2018-12-25T18:22:47.267Z,82.83
2018-12-25T18:25:36.937Z,82.52
2018-12-25T18:28:18.257Z,82.53
2018-12-25T18:31:06.176Z,82.46
2018-12-25T18:33:47.253Z,82.65
2018-12-25T18:36:35.113Z,81.47
2018-12-25T18:39:16.075Z,81.82
2018-12-25T18:42:03.971Z,81.77
2018-12-25T18:44:45.055Z,82.02
2018-12-25T18:47:33.007Z,82.62
2018-12-25T18:50:15.314Z,82.01
2018-12-25T18:52:56.256Z,82.19
2018-12-25T18:55:37.174Z,81.99
2018-12-25T18:58:25.167Z,82.34
2018-12-25T19:01:06.419Z,81.88
2018-12-25T19:03:54.778Z,81.80
2018-12-25T19:06:35.739Z,81.86
2018-12-25T19:09:23.735Z,82.59
2018-12-25T19:12:04.762Z,82.62
2018-12-25T19:15:21.997Z,82.14
2018-12-25T19:18:03.821Z,82.84
2018-12-25T19:20:51.819Z,82.46
2018-12-25T19:23:31.337Z,82.72
2018-12-25T19:26:19.255Z,82.88
2018-12-25T19:29:00.782Z,82.96
2018-12-25T19:31:48.731Z,83.26
2018-12-25T19:34:29.746Z,83.22
2018-12-25T19:37:17.655Z,82.90
2018-12-25T19:39:58.719Z,82.84
2018-12-25T19:42:46.567Z,82.46
2018-12-25T19:45:28.780Z,83.00
2018-12-25T19:48:16.789Z,83.35
2018-12-25T19:50:57.875Z,82.70
2018-12-25T19:53:45.778Z,82.95
2018-12-25T19:56:27.268Z,82.57
2018-12-25T19:59:15.159Z,83.87
2018-12-25T20:01:56.325Z,82.52
2018-12-25T20:05:04.950Z,82.38
2018-12-25T20:07:57.327Z,82.05
2018-12-25T20:11:24.211Z,82.76
2018-12-25T20:14:27.932Z,82.93
2018-12-25T20:17:41.129Z,82.64
2018-12-25T20:20:38.563Z,82.96
2018-12-25T20:24:05.305Z,82.70
2018-12-25T20:27:23.910Z,82.60
2018-12-25T20:30:50.695Z,82.87
2018-12-25T20:33:53.893Z,83.00
2018-12-25T20:37:20.498Z,83.43
2018-12-25T20:40:20.709Z,83.33
2018-12-25T20:43:20.880Z,84.17
2018-12-25T20:49:48.147Z,84.28
2018-12-25T20:52:48.273Z,83.92
2018-12-25T20:55:48.515Z,84.10
2018-12-25T20:59:15.346Z,84.32
2018-12-25T21:02:16.083Z,84.24
2018-12-25T21:05:42.842Z,84.64
2018-12-25T21:08:43.459Z,84.70
2018-12-25T21:12:10.231Z,84.94
2018-12-25T21:15:12.067Z,85.29
2018-12-25T21:18:38.889Z,85.39
2018-12-25T21:21:39.435Z,85.73
2018-12-25T21:25:09.869Z,86.02
2018-12-25T21:27:48.177Z,86.04
2018-12-25T21:34:04.275Z,86.46
2018-12-25T21:36:49.572Z,87.39
2018-12-25T21:39:38.003Z,87.35
2018-12-25T21:42:18.780Z,88.02
2018-12-25T21:45:07.111Z,87.98
2018-12-25T21:47:48.812Z,88.20
2018-12-25T21:50:36.940Z,88.72
2018-12-25T21:53:17.772Z,88.71
2018-12-25T21:56:05.848Z,89.12
2018-12-25T21:58:46.727Z,89.19
2018-12-25T22:01:34.696Z,89.73
2018-12-25T22:04:16.283Z,89.72
2018-12-25T22:06:57.761Z,89.76
2018-12-25T22:09:45.977Z,90.38
2018-12-25T22:12:26.834Z,90.66
2018-12-25T22:15:14.793Z,90.20
2018-12-25T22:17:55.918Z,90.33
2018-12-25T22:20:43.878Z,90.65
2018-12-25T22:23:25.361Z,90.40
2018-12-25T22:26:13.408Z,90.52
2018-12-25T22:28:54.422Z,90.68
2018-12-25T22:31:42.405Z,90.57
2018-12-25T22:34:23.686Z,90.87
2018-12-25T22:37:11.720Z,90.98
2018-12-25T22:39:53.047Z,90.77
2018-12-25T22:42:41.004Z,90.46
2018-12-25T22:45:22.142Z,90.38
2018-12-25T22:48:10.186Z,90.41
2018-12-25T22:50:51.136Z,90.35
2018-12-25T22:53:32.361Z,90.45
2018-12-25T22:56:13.082Z,90.12
2018-12-25T22:58:54.148Z,89.93
2018-12-25T23:01:42.512Z,89.93
2018-12-25T23:04:23.365Z,89.69
2018-12-25T23:07:11.226Z,89.05
2018-12-25T23:09:52.185Z,88.84
2018-12-25T23:12:39.947Z,88.92
2018-12-25T23:15:40.458Z,88.51
2018-12-25T23:18:28.516Z,88.16
2018-12-25T23:21:09.276Z,87.86
2018-12-25T23:23:57.058Z,87.74
2018-12-25T23:26:38.292Z,88.17
2018-12-25T23:29:26.437Z,88.21
2018-12-25T23:32:07.723Z,88.06
2018-12-25T23:34:55.781Z,87.84
2018-12-25T23:37:36.659Z,87.49
2018-12-25T23:40:24.894Z,87.60
2018-12-25T23:43:05.741Z,87.65
2018-12-25T23:45:53.697Z,87.49
2018-12-25T23:48:34.397Z,87.48
2018-12-25T23:51:15.945Z,87.77
2018-12-25T23:54:03.952Z,88.16
2018-12-25T23:56:46.930Z,88.09
2018-12-25T23:59:35.592Z,88.39
